sensor_id;sensor_type;location;lat;lon;timestamp;pressure;altitude;pressure_sealevel;temperature;humidity
64628;BME280;68467;50.960;0.314;2023-04-10T00:00:03;99955.97;;;7.00;100.00
64628;BME280;68467;50.960;0.314;2023-04-10T00:02:30;99956.08;;;6.90;100.00
64628;BME280;68467;50.960;0.314;2023-04-10T00:04:57;99953.10;;;7.01;100.00
64628;BME280;68467;50.960;0.314;2023-04-10T00:07:25;99947.75;;;6.77;100.00
64628;BME280;68467;50.960;0.314;2023-04-10T00:09:52;99942.04;;;7.22;100.00
64628;BME280;68467;50.960;0.314;2023-04-10T00:12:20;99936.54;;;6.86;100.00
64628;BME280;68467;50.960;0.314;2023-04-10T00:14:48;99936.82;;;7.06;100.00
64628;BME280;68467;50.960;0.314;2023-04-10T00:17:15;99931.14;;;6.93;100.00
64628;BME280;68467;50.960;0.314;2023-04-10T00:19:42;99921.55;;;6.90;100.00
64628;BME280;68467;50.960;0.314;2023-04-10T00:22:09;99918.78;;;7.05;100.00
64628;BME280;68467;50.960;0.314;2023-04-10T00:24:36;99918.82;;;7.52;100.00
64628;BME280;68467;50.960;0.314;2023-04-10T00:27:03;99911.46;;;7.16;100.00
64628;BME280;68467;50.960;0.314;2023-04-10T00:29:31;99904.70;;;6.98;100.00
64628;BME280;68467;50.960;0.314;2023-04-10T00:31:58;99895.85;;;7.15;100.00
64628;BME280;68467;50.960;0.314;2023-04-10T00:34:25;99898.03;;;7.38;100.00
64628;BME280;68467;50.960;0.314;2023-04-10T00:36:52;99892.91;;;6.94;100.00
64628;BME280;68467;50.960;0.314;2023-04-10T00:39:19;99895.51;;;6.97;100.00
64628;BME280;68467;50.960;0.314;2023-04-10T00:41:46;99895.93;;;7.20;100.00
64628;BME280;68467;50.960;0.314;2023-04-10T00:44:14;99891.59;;;7.44;100.00
64628;BME280;68467;50.960;0.314;2023-04-10T00:46:41;99886.66;;;7.09;100.00
64628;BME280;68467;50.960;0.314;2023-04-10T00:49:08;99882.02;;;7.32;100.00
64628;BME280;68467;50.960;0.314;2023-04-10T00:51:36;99879.67;;;7.13;100.00
64628;BME280;68467;50.960;0.314;2023-04-10T00:54:04;99877.45;;;7.25;100.00
64628;BME280;68467;50.960;0.314;2023-04-10T00:56:32;99880.61;;;7.57;100.00
64628;BME280;68467;50.960;0.314;2023-04-10T00:59:00;99878.44;;;7.25;100.00
64628;BME280;68467;50.960;0.314;2023-04-10T01:01:27;99874.62;;;7.26;100.00
64628;BME280;68467;50.960;0.314;2023-04-10T01:03:54;99871.95;;;7.27;100.00
64628;BME280;68467;50.960;0.314;2023-04-10T01:06:29;99873.00;;;7.39;100.00
64628;BME280;68467;50.960;0.314;2023-04-10T01:09:09;99870.31;;;7.25;100.00
64628;BME280;68467;50.960;0.314;2023-04-10T01:11:45;99870.16;;;7.18;100.00
64628;BME280;68467;50.960;0.314;2023-04-10T01:14:26;99865.28;;;7.36;100.00
64628;BME280;68467;50.960;0.314;2023-04-10T01:17:03;99865.89;;;7.58;100.00
64628;BME280;68467;50.960;0.314;2023-04-10T01:19:49;99866.09;;;7.26;100.00
64628;BME280;68467;50.960;0.314;2023-04-10T01:22:33;99859.34;;;7.36;100.00
64628;BME280;68467;50.960;0.314;2023-04-10T01:25:14;99855.09;;;7.46;100.00
64628;BME280;68467;50.960;0.314;2023-04-10T01:27:54;99854.45;;;7.58;100.00
64628;BME280;68467;50.960;0.314;2023-04-10T01:30:25;99855.22;;;7.68;100.00
64628;BME280;68467;50.960;0.314;2023-04-10T01:32:54;99847.91;;;7.93;100.00
64628;BME280;68467;50.960;0.314;2023-04-10T01:35:23;99843.46;;;7.85;100.00
64628;BME280;68467;50.960;0.314;2023-04-10T01:37:52;99848.89;;;7.61;100.00
64628;BME280;68467;50.960;0.314;2023-04-10T01:40:23;99847.12;;;7.72;100.00
64628;BME280;68467;50.960;0.314;2023-04-10T01:42:54;99842.69;;;7.86;100.00
64628;BME280;68467;50.960;0.314;2023-04-10T01:45:27;99843.30;;;8.24;100.00
64628;BME280;68467;50.960;0.314;2023-04-10T01:47:54;99838.93;;;8.33;100.00
64628;BME280;68467;50.960;0.314;2023-04-10T01:50:21;99836.36;;;8.09;100.00
64628;BME280;68467;50.960;0.314;2023-04-10T01:52:50;99829.31;;;8.19;100.00
64628;BME280;68467;50.960;0.314;2023-04-10T01:55:18;99828.73;;;8.31;100.00
64628;BME280;68467;50.960;0.314;2023-04-10T01:57:46;99819.73;;;8.02;100.00
64628;BME280;68467;50.960;0.314;2023-04-10T02:00:14;99816.93;;;8.24;100.00
64628;BME280;68467;50.960;0.314;2023-04-10T02:02:46;99812.57;;;8.10;100.00
64628;BME280;68467;50.960;0.314;2023-04-10T02:05:15;99811.72;;;8.30;100.00
64628;BME280;68467;50.960;0.314;2023-04-10T02:07:45;99805.10;;;7.88;100.00
64628;BME280;68467;50.960;0.314;2023-04-10T02:10:19;99813.44;;;8.24;100.00
64628;BME280;68467;50.960;0.314;2023-04-10T02:12:51;99806.09;;;8.22;100.00
64628;BME280;68467;50.960;0.314;2023-04-10T02:15:19;99820.09;;;8.26;100.00
64628;BME280;68467;50.960;0.314;2023-04-10T02:17:48;99813.71;;;7.85;100.00
64628;BME280;68467;50.960;0.314;2023-04-10T02:20:15;99811.64;;;8.17;100.00
64628;BME280;68467;50.960;0.314;2023-04-10T02:22:43;99811.57;;;7.85;100.00
64628;BME280;68467;50.960;0.314;2023-04-10T02:25:11;99805.32;;;8.17;100.00
64628;BME280;68467;50.960;0.314;2023-04-10T02:27:39;99810.29;;;7.93;100.00
64628;BME280;68467;50.960;0.314;2023-04-10T02:30:07;99802.93;;;8.06;100.00
64628;BME280;68467;50.960;0.314;2023-04-10T02:32:34;99802.18;;;8.54;100.00
64628;BME280;68467;50.960;0.314;2023-04-10T02:35:02;99792.75;;;9.01;100.00
64628;BME280;68467;50.960;0.314;2023-04-10T02:37:29;99791.47;;;8.73;100.00
64628;BME280;68467;50.960;0.314;2023-04-10T02:39:56;99784.50;;;8.65;100.00
64628;BME280;68467;50.960;0.314;2023-04-10T02:42:24;99781.48;;;8.01;100.00
64628;BME280;68467;50.960;0.314;2023-04-10T02:44:51;99785.65;;;7.79;100.00
64628;BME280;68467;50.960;0.314;2023-04-10T02:47:18;99791.57;;;8.02;100.00
64628;BME280;68467;50.960;0.314;2023-04-10T02:49:45;99780.34;;;8.57;100.00
64628;BME280;68467;50.960;0.314;2023-04-10T02:52:12;99781.00;;;7.80;100.00
64628;BME280;68467;50.960;0.314;2023-04-10T02:54:39;99784.84;;;7.70;100.00
64628;BME280;68467;50.960;0.314;2023-04-10T02:57:07;99771.65;;;7.57;100.00
64628;BME280;68467;50.960;0.314;2023-04-10T02:59:34;99771.72;;;7.68;100.00
64628;BME280;68467;50.960;0.314;2023-04-10T03:02:01;99764.66;;;8.08;100.00
64628;BME280;68467;50.960;0.314;2023-04-10T03:04:31;99733.84;;;7.80;100.00
64628;BME280;68467;50.960;0.314;2023-04-10T03:06:58;99740.49;;;8.44;100.00
64628;BME280;68467;50.960;0.314;2023-04-10T03:09:25;99735.70;;;8.08;100.00
64628;BME280;68467;50.960;0.314;2023-04-10T03:11:52;99733.57;;;8.00;100.00
64628;BME280;68467;50.960;0.314;2023-04-10T03:14:19;99737.08;;;7.85;100.00
64628;BME280;68467;50.960;0.314;2023-04-10T03:16:47;99738.86;;;8.01;100.00
64628;BME280;68467;50.960;0.314;2023-04-10T03:19:14;99742.81;;;8.06;100.00
64628;BME280;68467;50.960;0.314;2023-04-10T03:21:40;99750.39;;;7.57;100.00
64628;BME280;68467;50.960;0.314;2023-04-10T03:24:08;99734.07;;;7.25;100.00
64628;BME280;68467;50.960;0.314;2023-04-10T03:26:35;99740.10;;;7.61;100.00
64628;BME280;68467;50.960;0.314;2023-04-10T03:29:02;99711.49;;;7.35;100.00
64628;BME280;68467;50.960;0.314;2023-04-10T03:31:29;99707.40;;;7.82;100.00
64628;BME280;68467;50.960;0.314;2023-04-10T03:33:57;99706.35;;;8.34;100.00
64628;BME280;68467;50.960;0.314;2023-04-10T03:36:24;99714.45;;;8.55;100.00
64628;BME280;68467;50.960;0.314;2023-04-10T03:38:51;99713.57;;;8.29;100.00
64628;BME280;68467;50.960;0.314;2023-04-10T03:41:18;99710.73;;;8.04;100.00
64628;BME280;68467;50.960;0.314;2023-04-10T03:43:45;99707.94;;;7.87;100.00
64628;BME280;68467;50.960;0.314;2023-04-10T03:46:13;99709.45;;;7.93;100.00
64628;BME280;68467;50.960;0.314;2023-04-10T03:48:40;99705.84;;;7.86;100.00
64628;BME280;68467;50.960;0.314;2023-04-10T03:51:07;99703.48;;;7.47;100.00
64628;BME280;68467;50.960;0.314;2023-04-10T03:53:35;99708.96;;;7.08;100.00
64628;BME280;68467;50.960;0.314;2023-04-10T03:56:02;99712.89;;;7.61;100.00
64628;BME280;68467;50.960;0.314;2023-04-10T03:58:29;99716.85;;;7.33;100.00
64628;BME280;68467;50.960;0.314;2023-04-10T04:00:57;99717.10;;;7.35;100.00
64628;BME280;68467;50.960;0.314;2023-04-10T04:03:24;99717.90;;;7.39;100.00
64628;BME280;68467;50.960;0.314;2023-04-10T04:05:51;99710.32;;;7.47;100.00
64628;BME280;68467;50.960;0.314;2023-04-10T04:08:19;99709.52;;;7.54;100.00
64628;BME280;68467;50.960;0.314;2023-04-10T04:10:46;99712.25;;;7.18;100.00
64628;BME280;68467;50.960;0.314;2023-04-10T04:13:13;99716.40;;;7.20;100.00
64628;BME280;68467;50.960;0.314;2023-04-10T04:15:40;99717.75;;;7.41;100.00
64628;BME280;68467;50.960;0.314;2023-04-10T04:18:08;99713.34;;;7.27;100.00
64628;BME280;68467;50.960;0.314;2023-04-10T04:20:35;99708.17;;;7.25;100.00
64628;BME280;68467;50.960;0.314;2023-04-10T04:23:02;99709.70;;;7.69;100.00
64628;BME280;68467;50.960;0.314;2023-04-10T04:25:29;99708.66;;;7.42;100.00
64628;BME280;68467;50.960;0.314;2023-04-10T04:27:56;99703.73;;;7.46;100.00
64628;BME280;68467;50.960;0.314;2023-04-10T04:30:23;99700.15;;;7.12;100.00
64628;BME280;68467;50.960;0.314;2023-04-10T04:32:51;99707.21;;;6.85;100.00
64628;BME280;68467;50.960;0.314;2023-04-10T04:35:18;99703.55;;;7.12;100.00
64628;BME280;68467;50.960;0.314;2023-04-10T04:37:45;99703.77;;;7.02;100.00
64628;BME280;68467;50.960;0.314;2023-04-10T04:40:13;99697.26;;;7.11;100.00
64628;BME280;68467;50.960;0.314;2023-04-10T04:42:40;99701.81;;;7.10;100.00
64628;BME280;68467;50.960;0.314;2023-04-10T04:45:08;99697.33;;;6.93;100.00
64628;BME280;68467;50.960;0.314;2023-04-10T04:47:35;99696.53;;;7.19;100.00
64628;BME280;68467;50.960;0.314;2023-04-10T04:50:03;99695.13;;;7.07;100.00
64628;BME280;68467;50.960;0.314;2023-04-10T04:52:31;99695.77;;;7.01;100.00
64628;BME280;68467;50.960;0.314;2023-04-10T04:54:58;99696.22;;;7.13;100.00
64628;BME280;68467;50.960;0.314;2023-04-10T04:57:25;99697.07;;;7.24;100.00
64628;BME280;68467;50.960;0.314;2023-04-10T04:59:52;99698.71;;;6.61;100.00
64628;BME280;68467;50.960;0.314;2023-04-10T05:02:19;99700.97;;;7.19;100.00
64628;BME280;68467;50.960;0.314;2023-04-10T05:04:46;99698.91;;;7.20;100.00
64628;BME280;68467;50.960;0.314;2023-04-10T05:07:13;99697.88;;;7.36;100.00
64628;BME280;68467;50.960;0.314;2023-04-10T05:09:40;99697.47;;;7.22;100.00
64628;BME280;68467;50.960;0.314;2023-04-10T05:12:07;99696.54;;;6.68;100.00
64628;BME280;68467;50.960;0.314;2023-04-10T05:14:35;99702.21;;;6.98;100.00
64628;BME280;68467;50.960;0.314;2023-04-10T05:17:02;99702.78;;;6.87;100.00
64628;BME280;68467;50.960;0.314;2023-04-10T05:19:29;99693.79;;;6.82;100.00
64628;BME280;68467;50.960;0.314;2023-04-10T05:21:57;99692.66;;;6.80;100.00
64628;BME280;68467;50.960;0.314;2023-04-10T05:24:24;99686.95;;;6.97;100.00
64628;BME280;68467;50.960;0.314;2023-04-10T05:26:50;99694.58;;;6.71;100.00
64628;BME280;68467;50.960;0.314;2023-04-10T05:29:18;99696.28;;;6.65;100.00
64628;BME280;68467;50.960;0.314;2023-04-10T05:31:45;99688.51;;;6.87;100.00
64628;BME280;68467;50.960;0.314;2023-04-10T05:34:18;99687.13;;;6.52;100.00
64628;BME280;68467;50.960;0.314;2023-04-10T05:36:45;99686.59;;;6.33;100.00
64628;BME280;68467;50.960;0.314;2023-04-10T05:39:12;99686.37;;;6.74;100.00
64628;BME280;68467;50.960;0.314;2023-04-10T05:41:39;99683.06;;;6.35;100.00
64628;BME280;68467;50.960;0.314;2023-04-10T05:44:06;99680.68;;;6.67;100.00
64628;BME280;68467;50.960;0.314;2023-04-10T05:46:33;99670.97;;;6.62;100.00
64628;BME280;68467;50.960;0.314;2023-04-10T05:49:01;99672.03;;;6.34;100.00
64628;BME280;68467;50.960;0.314;2023-04-10T05:51:38;99655.09;;;6.57;100.00
64628;BME280;68467;50.960;0.314;2023-04-10T05:54:15;99648.38;;;6.68;100.00
64628;BME280;68467;50.960;0.314;2023-04-10T05:56:47;99653.63;;;6.91;100.00
64628;BME280;68467;50.960;0.314;2023-04-10T05:59:14;99655.33;;;6.74;100.00
64628;BME280;68467;50.960;0.314;2023-04-10T06:01:42;99655.47;;;6.71;100.00
64628;BME280;68467;50.960;0.314;2023-04-10T06:04:14;99654.49;;;6.59;100.00
64628;BME280;68467;50.960;0.314;2023-04-10T06:06:42;99649.84;;;6.32;100.00
64628;BME280;68467;50.960;0.314;2023-04-10T06:09:09;99648.54;;;6.41;100.00
64628;BME280;68467;50.960;0.314;2023-04-10T06:11:35;99655.91;;;6.66;100.00
64628;BME280;68467;50.960;0.314;2023-04-10T06:14:02;99662.37;;;6.76;100.00
64628;BME280;68467;50.960;0.314;2023-04-10T06:16:30;99659.81;;;6.69;100.00
64628;BME280;68467;50.960;0.314;2023-04-10T06:18:57;99671.03;;;6.69;100.00
64628;BME280;68467;50.960;0.314;2023-04-10T06:21:24;99663.76;;;6.64;100.00
64628;BME280;68467;50.960;0.314;2023-04-10T06:23:51;99627.73;;;6.66;100.00
64628;BME280;68467;50.960;0.314;2023-04-10T06:26:19;99642.32;;;6.38;100.00
64628;BME280;68467;50.960;0.314;2023-04-10T06:28:46;99642.14;;;6.37;100.00
64628;BME280;68467;50.960;0.314;2023-04-10T06:31:14;99649.06;;;6.39;100.00
64628;BME280;68467;50.960;0.314;2023-04-10T06:33:40;99646.48;;;6.37;100.00
64628;BME280;68467;50.960;0.314;2023-04-10T06:36:08;99636.17;;;6.24;100.00
64628;BME280;68467;50.960;0.314;2023-04-10T06:38:35;99630.57;;;6.81;100.00
64628;BME280;68467;50.960;0.314;2023-04-10T06:41:03;99633.76;;;6.53;100.00
64628;BME280;68467;50.960;0.314;2023-04-10T06:43:32;99640.51;;;6.40;100.00
64628;BME280;68467;50.960;0.314;2023-04-10T06:46:01;99634.44;;;6.13;100.00
64628;BME280;68467;50.960;0.314;2023-04-10T06:48:28;99622.74;;;6.19;100.00
64628;BME280;68467;50.960;0.314;2023-04-10T06:50:56;99637.14;;;6.65;100.00
64628;BME280;68467;50.960;0.314;2023-04-10T06:53:23;99630.36;;;6.40;100.00
64628;BME280;68467;50.960;0.314;2023-04-10T06:55:50;99621.49;;;6.33;100.00
64628;BME280;68467;50.960;0.314;2023-04-10T06:58:18;99616.20;;;6.08;100.00
64628;BME280;68467;50.960;0.314;2023-04-10T07:00:50;99623.38;;;6.14;100.00
64628;BME280;68467;50.960;0.314;2023-04-10T07:03:18;99620.73;;;6.10;100.00
64628;BME280;68467;50.960;0.314;2023-04-10T07:05:45;99622.29;;;6.24;100.00
64628;BME280;68467;50.960;0.314;2023-04-10T07:08:17;99618.44;;;6.33;100.00
64628;BME280;68467;50.960;0.314;2023-04-10T07:10:44;99619.36;;;6.18;100.00
64628;BME280;68467;50.960;0.314;2023-04-10T07:13:11;99617.37;;;6.60;100.00
64628;BME280;68467;50.960;0.314;2023-04-10T07:15:38;99609.68;;;6.31;100.00
64628;BME280;68467;50.960;0.314;2023-04-10T07:18:05;99607.93;;;6.38;100.00
64628;BME280;68467;50.960;0.314;2023-04-10T07:20:42;99611.78;;;6.22;100.00
64628;BME280;68467;50.960;0.314;2023-04-10T07:23:10;99609.78;;;6.18;100.00
64628;BME280;68467;50.960;0.314;2023-04-10T07:25:37;99603.48;;;6.33;100.00
64628;BME280;68467;50.960;0.314;2023-04-10T07:28:04;99591.42;;;6.45;100.00
64628;BME280;68467;50.960;0.314;2023-04-10T07:30:31;99596.15;;;6.55;100.00
64628;BME280;68467;50.960;0.314;2023-04-10T07:32:59;99591.52;;;6.32;100.00
64628;BME280;68467;50.960;0.314;2023-04-10T07:35:26;99590.20;;;6.21;100.00
64628;BME280;68467;50.960;0.314;2023-04-10T07:37:54;99588.30;;;6.44;100.00
64628;BME280;68467;50.960;0.314;2023-04-10T07:40:21;99575.96;;;6.33;100.00
64628;BME280;68467;50.960;0.314;2023-04-10T07:42:48;99577.05;;;6.15;100.00
64628;BME280;68467;50.960;0.314;2023-04-10T07:45:16;99581.71;;;6.32;100.00
64628;BME280;68467;50.960;0.314;2023-04-10T07:47:43;99585.04;;;5.98;100.00
64628;BME280;68467;50.960;0.314;2023-04-10T07:50:10;99580.74;;;6.42;100.00
64628;BME280;68467;50.960;0.314;2023-04-10T07:52:38;99574.42;;;6.54;100.00
64628;BME280;68467;50.960;0.314;2023-04-10T07:55:06;99569.84;;;6.21;100.00
64628;BME280;68467;50.960;0.314;2023-04-10T07:57:35;99565.26;;;6.28;100.00
64628;BME280;68467;50.960;0.314;2023-04-10T08:00:13;99570.45;;;6.63;100.00
64628;BME280;68467;50.960;0.314;2023-04-10T08:02:40;99572.20;;;6.26;100.00
64628;BME280;68467;50.960;0.314;2023-04-10T08:05:07;99557.45;;;6.18;100.00
64628;BME280;68467;50.960;0.314;2023-04-10T08:07:35;99562.48;;;6.43;100.00
64628;BME280;68467;50.960;0.314;2023-04-10T08:10:03;99561.92;;;6.35;100.00
64628;BME280;68467;50.960;0.314;2023-04-10T08:12:32;99559.33;;;6.09;100.00
64628;BME280;68467;50.960;0.314;2023-04-10T08:14:59;99556.07;;;6.44;100.00
64628;BME280;68467;50.960;0.314;2023-04-10T08:17:27;99559.05;;;6.41;100.00
64628;BME280;68467;50.960;0.314;2023-04-10T08:19:54;99548.38;;;6.55;100.00
64628;BME280;68467;50.960;0.314;2023-04-10T08:22:21;99547.17;;;6.52;100.00
64628;BME280;68467;50.960;0.314;2023-04-10T08:24:49;99545.03;;;6.23;100.00
64628;BME280;68467;50.960;0.314;2023-04-10T08:27:16;99537.42;;;6.40;100.00
64628;BME280;68467;50.960;0.314;2023-04-10T08:29:43;99541.19;;;6.37;100.00
64628;BME280;68467;50.960;0.314;2023-04-10T08:32:10;99538.25;;;6.70;100.00
64628;BME280;68467;50.960;0.314;2023-04-10T08:34:38;99533.91;;;6.53;100.00
64628;BME280;68467;50.960;0.314;2023-04-10T08:37:05;99540.24;;;6.76;100.00
64628;BME280;68467;50.960;0.314;2023-04-10T08:39:33;99533.94;;;6.74;100.00
64628;BME280;68467;50.960;0.314;2023-04-10T08:42:01;99535.15;;;6.20;100.00
64628;BME280;68467;50.960;0.314;2023-04-10T08:44:28;99539.68;;;6.41;100.00
64628;BME280;68467;50.960;0.314;2023-04-10T08:46:58;99536.66;;;6.46;100.00
64628;BME280;68467;50.960;0.314;2023-04-10T08:49:30;99532.02;;;6.59;100.00
64628;BME280;68467;50.960;0.314;2023-04-10T08:51:58;99535.21;;;6.36;100.00
64628;BME280;68467;50.960;0.314;2023-04-10T08:54:29;99522.14;;;6.30;100.00
64628;BME280;68467;50.960;0.314;2023-04-10T08:56:58;99520.55;;;6.40;100.00
64628;BME280;68467;50.960;0.314;2023-04-10T08:59:27;99527.31;;;6.56;100.00
64628;BME280;68467;50.960;0.314;2023-04-10T09:01:55;99515.69;;;6.43;100.00
64628;BME280;68467;50.960;0.314;2023-04-10T09:04:22;99505.35;;;6.39;100.00
64628;BME280;68467;50.960;0.314;2023-04-10T09:06:51;99505.82;;;6.23;100.00
64628;BME280;68467;50.960;0.314;2023-04-10T09:09:18;99508.77;;;6.19;100.00
64628;BME280;68467;50.960;0.314;2023-04-10T09:12:02;99495.81;;;6.26;100.00
64628;BME280;68467;50.960;0.314;2023-04-10T09:14:31;99496.74;;;6.26;100.00
64628;BME280;68467;50.960;0.314;2023-04-10T09:17:16;99482.97;;;6.35;100.00
64628;BME280;68467;50.960;0.314;2023-04-10T09:19:44;99497.44;;;6.15;100.00
64628;BME280;68467;50.960;0.314;2023-04-10T09:22:18;99485.66;;;6.28;100.00
64628;BME280;68467;50.960;0.314;2023-04-10T09:25:01;99484.34;;;6.22;100.00
64628;BME280;68467;50.960;0.314;2023-04-10T09:27:30;99484.85;;;6.28;100.00
64628;BME280;68467;50.960;0.314;2023-04-10T09:29:58;99470.88;;;6.27;100.00
64628;BME280;68467;50.960;0.314;2023-04-10T09:32:37;99465.27;;;6.25;100.00
64628;BME280;68467;50.960;0.314;2023-04-10T09:35:06;99460.61;;;6.29;100.00
64628;BME280;68467;50.960;0.314;2023-04-10T09:37:40;99446.38;;;6.11;100.00
64628;BME280;68467;50.960;0.314;2023-04-10T09:40:19;99452.62;;;6.12;100.00
64628;BME280;68467;50.960;0.314;2023-04-10T09:42:46;99450.33;;;6.14;100.00
64628;BME280;68467;50.960;0.314;2023-04-10T09:45:14;99442.57;;;6.27;100.00
64628;BME280;68467;50.960;0.314;2023-04-10T09:47:41;99438.36;;;6.20;100.00
64628;BME280;68467;50.960;0.314;2023-04-10T09:50:08;99414.68;;;6.21;100.00
64628;BME280;68467;50.960;0.314;2023-04-10T09:52:35;99425.49;;;6.27;100.00
64628;BME280;68467;50.960;0.314;2023-04-10T09:55:04;99416.90;;;6.43;100.00
64628;BME280;68467;50.960;0.314;2023-04-10T09:57:33;99412.60;;;6.22;100.00
64628;BME280;68467;50.960;0.314;2023-04-10T10:00:03;99412.59;;;6.44;100.00
64628;BME280;68467;50.960;0.314;2023-04-10T10:02:30;99388.92;;;6.66;100.00
64628;BME280;68467;50.960;0.314;2023-04-10T10:05:03;99408.65;;;6.48;100.00
64628;BME280;68467;50.960;0.314;2023-04-10T10:07:31;99405.36;;;6.64;100.00
64628;BME280;68467;50.960;0.314;2023-04-10T10:09:59;99388.23;;;6.56;100.00
64628;BME280;68467;50.960;0.314;2023-04-10T10:12:34;99375.04;;;6.73;100.00
64628;BME280;68467;50.960;0.314;2023-04-10T10:15:07;99398.67;;;6.86;100.00
64628;BME280;68467;50.960;0.314;2023-04-10T10:17:42;99394.56;;;6.76;100.00
64628;BME280;68467;50.960;0.314;2023-04-10T10:20:10;99389.72;;;6.76;100.00
64628;BME280;68467;50.960;0.314;2023-04-10T10:22:39;99393.00;;;7.04;100.00
64628;BME280;68467;50.960;0.314;2023-04-10T10:25:08;99382.06;;;6.59;100.00
64628;BME280;68467;50.960;0.314;2023-04-10T10:27:36;99382.76;;;7.14;100.00
64628;BME280;68467;50.960;0.314;2023-04-10T10:30:05;99369.04;;;6.94;100.00
64628;BME280;68467;50.960;0.314;2023-04-10T10:32:34;99378.07;;;6.56;100.00
64628;BME280;68467;50.960;0.314;2023-04-10T10:35:01;99358.39;;;6.97;100.00
64628;BME280;68467;50.960;0.314;2023-04-10T10:37:29;99371.63;;;6.97;100.00
64628;BME280;68467;50.960;0.314;2023-04-10T10:40:00;99367.08;;;6.83;100.00
64628;BME280;68467;50.960;0.314;2023-04-10T10:42:45;99359.57;;;6.68;100.00
64628;BME280;68467;50.960;0.314;2023-04-10T10:45:16;99337.17;;;6.78;100.00
64628;BME280;68467;50.960;0.314;2023-04-10T10:47:48;99348.30;;;6.60;100.00
64628;BME280;68467;50.960;0.314;2023-04-10T10:50:17;99355.66;;;7.07;100.00
64628;BME280;68467;50.960;0.314;2023-04-10T10:52:45;99317.95;;;6.89;100.00
64628;BME280;68467;50.960;0.314;2023-04-10T10:55:30;99352.00;;;6.87;100.00
64628;BME280;68467;50.960;0.314;2023-04-10T10:57:58;99351.03;;;6.85;100.00
64628;BME280;68467;50.960;0.314;2023-04-10T11:01:02;99349.61;;;7.10;100.00
64628;BME280;68467;50.960;0.314;2023-04-10T11:03:31;99344.11;;;7.04;100.00
64628;BME280;68467;50.960;0.314;2023-04-10T11:05:59;99344.42;;;7.15;100.00
64628;BME280;68467;50.960;0.314;2023-04-10T11:08:43;99355.91;;;7.07;100.00
64628;BME280;68467;50.960;0.314;2023-04-10T11:11:14;99334.81;;;7.40;100.00
64628;BME280;68467;50.960;0.314;2023-04-10T11:14:12;99334.74;;;7.23;100.00
64628;BME280;68467;50.960;0.314;2023-04-10T11:16:42;99334.04;;;7.33;100.00
64628;BME280;68467;50.960;0.314;2023-04-10T11:19:10;99332.65;;;7.01;100.00
64628;BME280;68467;50.960;0.314;2023-04-10T11:22:00;99339.16;;;7.20;100.00
64628;BME280;68467;50.960;0.314;2023-04-10T11:24:28;99330.77;;;7.23;100.00
64628;BME280;68467;50.960;0.314;2023-04-10T11:26:55;99326.07;;;7.40;100.00
64628;BME280;68467;50.960;0.314;2023-04-10T11:29:38;99339.55;;;7.13;100.00
64628;BME280;68467;50.960;0.314;2023-04-10T11:32:05;99329.02;;;7.01;100.00
64628;BME280;68467;50.960;0.314;2023-04-10T11:34:32;99329.53;;;7.13;100.00
64628;BME280;68467;50.960;0.314;2023-04-10T11:37:00;99333.86;;;7.21;100.00
64628;BME280;68467;50.960;0.314;2023-04-10T11:39:29;99334.50;;;7.15;100.00
64628;BME280;68467;50.960;0.314;2023-04-10T11:41:57;99324.43;;;7.28;100.00
64628;BME280;68467;50.960;0.314;2023-04-10T11:44:29;99335.21;;;7.50;100.00
64628;BME280;68467;50.960;0.314;2023-04-10T11:46:57;99343.03;;;7.38;100.00
64628;BME280;68467;50.960;0.314;2023-04-10T11:49:26;99348.04;;;7.09;100.00
64628;BME280;68467;50.960;0.314;2023-04-10T11:51:54;99351.49;;;7.14;100.00
64628;BME280;68467;50.960;0.314;2023-04-10T11:54:23;99360.11;;;7.08;100.00
64628;BME280;68467;50.960;0.314;2023-04-10T11:57:01;99348.91;;;7.35;100.00
64628;BME280;68467;50.960;0.314;2023-04-10T11:59:29;99338.18;;;7.52;100.00
64628;BME280;68467;50.960;0.314;2023-04-10T12:02:06;99337.25;;;7.78;100.00
64628;BME280;68467;50.960;0.314;2023-04-10T12:04:34;99338.72;;;7.70;100.00
64628;BME280;68467;50.960;0.314;2023-04-10T12:07:02;99333.53;;;7.43;100.00
64628;BME280;68467;50.960;0.314;2023-04-10T12:09:29;99331.97;;;7.31;100.00
64628;BME280;68467;50.960;0.314;2023-04-10T12:11:58;99326.19;;;7.52;100.00
64628;BME280;68467;50.960;0.314;2023-04-10T12:14:30;99309.93;;;7.60;100.00
64628;BME280;68467;50.960;0.314;2023-04-10T12:16:57;99309.89;;;7.26;100.00
64628;BME280;68467;50.960;0.314;2023-04-10T12:19:25;99313.18;;;7.72;100.00
64628;BME280;68467;50.960;0.314;2023-04-10T12:21:52;99308.43;;;8.02;100.00
64628;BME280;68467;50.960;0.314;2023-04-10T12:24:52;99296.73;;;8.08;100.00
64628;BME280;68467;50.960;0.314;2023-04-10T12:27:21;99321.26;;;8.01;100.00
64628;BME280;68467;50.960;0.314;2023-04-10T12:29:50;99310.87;;;7.61;100.00
64628;BME280;68467;50.960;0.314;2023-04-10T12:32:18;99309.69;;;7.55;100.00
64628;BME280;68467;50.960;0.314;2023-04-10T12:34:49;99314.93;;;7.60;100.00
64628;BME280;68467;50.960;0.314;2023-04-10T12:37:16;99311.43;;;7.47;100.00
64628;BME280;68467;50.960;0.314;2023-04-10T12:39:43;99299.39;;;7.38;100.00
64628;BME280;68467;50.960;0.314;2023-04-10T12:42:22;99312.60;;;7.49;100.00
64628;BME280;68467;50.960;0.314;2023-04-10T12:44:52;99315.87;;;7.06;100.00
64628;BME280;68467;50.960;0.314;2023-04-10T12:47:19;99319.68;;;7.44;100.00
64628;BME280;68467;50.960;0.314;2023-04-10T12:50:20;99310.06;;;7.38;100.00
64628;BME280;68467;50.960;0.314;2023-04-10T12:53:02;99309.14;;;7.70;100.00
64628;BME280;68467;50.960;0.314;2023-04-10T12:55:30;99310.63;;;7.36;100.00
64628;BME280;68467;50.960;0.314;2023-04-10T12:57:57;99306.58;;;7.60;100.00
64628;BME280;68467;50.960;0.314;2023-04-10T13:00:24;99302.49;;;8.29;100.00
64628;BME280;68467;50.960;0.314;2023-04-10T13:02:52;99292.30;;;8.21;100.00
64628;BME280;68467;50.960;0.314;2023-04-10T13:05:19;99292.45;;;8.58;100.00
64628;BME280;68467;50.960;0.314;2023-04-10T13:07:47;99293.34;;;8.54;100.00
64628;BME280;68467;50.960;0.314;2023-04-10T13:10:15;99286.63;;;8.76;100.00